Time;durP1;ratioP1;P1;durP2;ratioP2;P2;SDS_P1;SDS_P2;PMS_P1;PMS_P2;Temp;Humidity;BMP_temperature;BMP_pressure;BME280_temperature;BME280_humidity;BME280_pressure;Samples;Min_cycle;Max_cycle;Signal;HPM_P1;HPM_P2
2022/02/07 00:00:44;;;;;;;1.13;0.63;;;2.90;99.90;;;;;;5055804;28;20414;-79
2022/02/07 00:03:42;;;;;;;9.40;1.47;;;2.80;99.90;;;;;;5055953;28;20487;-80
2022/02/07 00:05:57;;;;;;;7.37;0.77;;;2.70;99.90;;;;;;5055440;28;20424;-79
2022/02/07 00:08:23;;;;;;;1.87;0.33;;;2.70;99.90;;;;;;5055951;28;20443;-79
2022/02/07 00:10:48;;;;;;;14.90;1.43;;;2.70;99.90;;;;;;5055811;28;20287;-79
2022/02/07 00:13:14;;;;;;;3.63;1.10;;;2.60;99.90;;;;;;5055924;28;20179;-79
2022/02/07 00:15:40;;;;;;;2.20;0.50;;;2.60;99.90;;;;;;5055478;28;20269;-79
2022/02/07 00:18:06;;;;;;;3.43;0.30;;;2.60;99.90;;;;;;5037912;28;20190;-79
2022/02/07 00:20:33;;;;;;;3.83;0.93;;;2.40;99.90;;;;;;5037760;28;20533;-79
2022/02/07 00:22:59;;;;;;;4.47;0.70;;;2.50;99.90;;;;;;5055720;28;20498;-79
2022/02/07 00:25:25;;;;;;;4.40;0.70;;;2.60;99.90;;;;;;5055572;28;20947;-79
2022/02/07 00:27:50;;;;;;;1.87;0.40;;;2.80;99.90;;;;;;5055557;28;20170;-79
2022/02/07 00:30:18;;;;;;;5.63;0.73;;;2.80;99.90;;;;;;5055207;28;21141;-79
2022/02/07 00:32:44;;;;;;;5.43;0.20;;;2.90;99.90;;;;;;5055410;28;20179;-79
2022/02/07 00:35:14;;;;;;;4.03;0.73;;;3.00;99.90;;;;;;5055525;28;20412;-79
2022/02/07 00:37:43;;;;;;;3.53;0.40;;;3.00;99.90;;;;;;5055410;28;20415;-79
2022/02/07 00:42:52;;;;;;;6.07;0.83;;;3.00;99.90;;;;;;5055550;28;20425;-79
2022/02/07 00:45:50;;;;;;;6.00;1.03;;;3.00;99.90;;;;;;5055097;28;20405;-81
2022/02/07 00:48:11;;;;;;;7.87;1.23;;;3.00;99.90;;;;;;5054506;28;20764;-81
2022/02/07 00:50:40;;;;;;;3.17;0.67;;;3.00;99.90;;;;;;5055179;28;20517;-81
2022/02/07 00:53:05;;;;;;;1.40;0.30;;;3.00;99.90;;;;;;5055000;28;20219;-81
2022/02/07 00:55:32;;;;;;;2.20;0.33;;;2.90;99.90;;;;;;5053727;28;20435;-81
2022/02/07 00:57:58;;;;;;;4.33;0.40;;;2.90;99.90;;;;;;5054965;28;20173;-80
2022/02/07 01:00:24;;;;;;;1.00;0.30;;;2.80;99.90;;;;;;5036815;28;20764;-81
2022/02/07 01:02:50;;;;;;;5.20;0.50;;;2.80;99.90;;;;;;5055125;28;20173;-81
2022/02/07 01:05:19;;;;;;;4.37;1.07;;;2.90;99.90;;;;;;5054948;28;20273;-81
2022/02/07 01:07:48;;;;;;;1.93;0.40;;;3.50;99.90;;;;;;5054767;28;20452;-81
2022/02/07 01:10:19;;;;;;;3.50;0.63;;;4.00;99.90;;;;;;5054784;28;20562;-81
2022/02/07 01:15:33;;;;;;;7.80;1.23;;;2.80;99.90;;;;;;5054501;28;20415;-81
2022/02/07 01:22:03;;;;;;;2.83;0.80;;;2.60;99.90;;;;;;5054986;28;20415;-81
2022/02/07 01:51:12;;;;;;;5.97;0.57;;;2.40;99.90;;;;;;5054005;28;21003;-80
2022/02/07 01:56:06;;;;;;;2.00;0.90;;;2.40;99.90;;;;;;5053927;28;20764;-79
2022/02/07 01:58:31;;;;;;;4.80;0.80;;;2.40;99.90;;;;;;5053862;28;20626;-80
2022/02/07 02:01:09;;;;;;;3.50;0.70;;;2.50;99.90;;;;;;5053438;28;20555;-79
2022/02/07 02:03:35;;;;;;;4.10;0.93;;;2.50;99.90;;;;;;5053789;28;20223;-80
2022/02/07 02:06:02;;;;;;;3.70;0.77;;;2.50;99.90;;;;;;5053319;28;20412;-80
2022/02/07 02:08:28;;;;;;;5.77;1.60;;;2.50;99.90;;;;;;5053914;28;20538;-80
2022/02/07 02:10:57;;;;;;;8.87;1.77;;;2.60;99.90;;;;;;5053565;28;20468;-80
2022/02/07 02:13:48;;;;;;;4.70;0.60;;;2.70;99.90;;;;;;5053655;28;20618;-80
2022/02/07 02:16:31;;;;;;;8.30;1.30;;;2.60;99.90;;;;;;5053128;28;20912;-80
2022/02/07 02:33:10;;;;;;;11.30;1.30;;;2.20;99.90;;;;;;5053282;28;20415;-81
2022/02/07 02:38:25;;;;;;;7.70;0.83;;;2.20;99.90;;;;;;5053233;28;20407;-81
2022/02/07 02:46:23;;;;;;;7.13;1.63;;;2.20;99.90;;;;;;5052876;28;20458;-82
2022/02/07 02:48:50;;;;;;;4.83;0.90;;;2.10;99.90;;;;;;5053069;28;20779;-81
2022/02/07 02:51:16;;;;;;;7.23;1.47;;;2.00;99.90;;;;;;5052816;28;20470;-81
2022/02/07 02:53:42;;;;;;;2.37;0.50;;;2.10;99.90;;;;;;5052775;28;20467;-81
2022/02/07 02:56:07;;;;;;;5.80;1.23;;;2.10;99.90;;;;;;5052949;28;20908;-81
2022/02/07 02:58:32;;;;;;;9.17;1.53;;;2.10;99.90;;;;;;5052921;28;20578;-81
2022/02/07 03:00:58;;;;;;;6.83;0.97;;;2.10;99.90;;;;;;5034705;28;20603;-81
2022/02/07 03:03:24;;;;;;;3.90;0.83;;;2.20;99.90;;;;;;5052855;28;20178;-81
2022/02/07 03:05:51;;;;;;;6.53;0.63;;;2.10;99.90;;;;;;5052874;28;20420;-81
2022/02/07 03:08:18;;;;;;;3.23;1.27;;;2.20;99.90;;;;;;5052712;28;20174;-82
2022/02/07 03:10:58;;;;;;;4.00;1.47;;;2.20;99.90;;;;;;5052590;28;20808;-82
2022/02/07 03:18:34;;;;;;;2.63;0.80;;;2.20;99.90;;;;;;5051983;28;20211;-81
2022/02/07 03:21:01;;;;;;;2.53;0.70;;;2.20;99.90;;;;;;5052603;28;20495;-82
2022/02/07 03:23:27;;;;;;;10.67;1.30;;;2.10;99.90;;;;;;5052765;28;20506;-81
2022/02/07 03:25:53;;;;;;;4.13;0.67;;;2.10;99.90;;;;;;5052575;28;20408;-82
2022/02/07 03:28:20;;;;;;;4.67;1.60;;;2.10;99.90;;;;;;5034806;28;20769;-82
2022/02/07 03:30:48;;;;;;;6.13;0.80;;;2.10;99.90;;;;;;5034247;28;20485;-82
2022/02/07 03:33:14;;;;;;;7.63;0.60;;;2.00;99.90;;;;;;5052488;28;20821;-82
2022/02/07 03:35:40;;;;;;;4.20;0.37;;;2.00;99.90;;;;;;5052540;28;20424;-81
2022/02/07 03:38:07;;;;;;;5.73;0.50;;;2.00;99.90;;;;;;5052477;28;20415;-82
2022/02/07 03:40:33;;;;;;;5.77;0.50;;;2.00;99.90;;;;;;5052384;28;20532;-82
2022/02/07 03:43:02;;;;;;;5.97;1.80;;;2.00;99.90;;;;;;5052431;28;20427;-82
2022/02/07 03:45:28;;;;;;;3.33;0.73;;;2.00;99.90;;;;;;5033280;28;20435;-82
2022/02/07 03:47:53;;;;;;;5.73;0.63;;;2.00;99.90;;;;;;5052229;28;20413;-82
2022/02/07 03:50:19;;;;;;;3.27;0.73;;;2.20;99.90;;;;;;5034383;28;20209;-82
2022/02/07 03:52:45;;;;;;;4.53;0.60;;;2.30;99.90;;;;;;5052105;28;20221;-82
2022/02/07 03:55:11;;;;;;;3.70;0.47;;;2.40;99.90;;;;;;5034370;28;20423;-81
2022/02/07 03:57:36;;;;;;;7.00;0.67;;;2.40;99.90;;;;;;5052176;28;20186;-82
2022/02/07 04:00:06;;;;;;;6.97;1.40;;;2.50;99.90;;;;;;5051840;28;20251;-81
2022/02/07 04:02:36;;;;;;;3.37;0.83;;;2.50;99.90;;;;;;5052244;28;20177;-81
2022/02/07 04:05:24;;;;;;;6.27;0.90;;;2.50;99.90;;;;;;5052119;28;20452;-81
2022/02/07 04:07:47;;;;;;;9.90;0.67;;;2.50;99.90;;;;;;5051937;28;20459;-81
2022/02/07 04:10:13;;;;;;;5.87;0.93;;;2.40;99.90;;;;;;5051990;28;20969;-81
2022/02/07 04:12:41;;;;;;;6.80;0.57;;;2.40;99.90;;;;;;5052159;28;20178;-81
2022/02/07 04:15:15;;;;;;;1.90;0.30;;;2.40;99.90;;;;;;5051776;28;20173;-81
2022/02/07 04:17:45;;;;;;;8.03;1.20;;;2.40;99.90;;;;;;5035140;28;20424;-81
2022/02/07 04:20:11;;;;;;;3.70;0.90;;;2.40;99.90;;;;;;5034292;28;20773;-81
2022/02/07 04:22:37;;;;;;;6.10;1.33;;;2.40;99.90;;;;;;5052096;28;20408;-81
2022/02/07 04:25:03;;;;;;;4.77;0.77;;;2.40;99.90;;;;;;5052077;28;20490;-82
2022/02/07 04:27:28;;;;;;;5.97;0.73;;;2.40;99.90;;;;;;5034107;28;20222;-81
2022/02/07 04:29:54;;;;;;;8.53;1.10;;;2.40;99.90;;;;;;5053779;28;20420;-81
2022/02/07 04:32:19;;;;;;;4.10;1.00;;;2.40;99.90;;;;;;5037702;28;20184;-82
2022/02/07 04:34:45;;;;;;;3.07;1.40;;;2.40;99.90;;;;;;5055538;28;20178;-81
2022/02/07 04:37:10;;;;;;;2.50;1.33;;;2.40;99.90;;;;;;5055531;28;20179;-81
2022/02/07 04:39:36;;;;;;;6.77;1.00;;;2.40;99.90;;;;;;5055424;28;20285;-81
2022/02/07 04:42:06;;;;;;;14.07;1.27;;;2.50;99.90;;;;;;5055319;28;20214;-80
2022/02/07 04:44:42;;;;;;;0.97;0.30;;;2.50;99.90;;;;;;5055017;28;20212;-81
2022/02/07 04:47:37;;;;;;;1.80;0.60;;;2.40;99.90;;;;;;5055366;28;20419;-81
2022/02/07 04:54:55;;;;;;;7.40;1.07;;;2.50;99.90;;;;;;5055325;28;20425;-81
2022/02/07 05:00:29;;;;;;;2.80;0.70;;;2.50;99.90;;;;;;5054812;28;20888;-80
2022/02/07 05:03:03;;;;;;;5.03;0.40;;;2.50;99.90;;;;;;5055170;28;20454;-80
2022/02/07 05:13:46;;;;;;;1.40;0.43;;;2.60;99.90;;;;;;5054926;28;20418;-80
2022/02/07 05:16:27;;;;;;;5.57;1.13;;;2.60;99.90;;;;;;5054929;28;20411;-80
2022/02/07 05:18:57;;;;;;;2.93;0.77;;;2.60;99.90;;;;;;5054801;28;20468;-81
2022/02/07 05:21:23;;;;;;;7.30;0.93;;;2.50;99.90;;;;;;5054726;28;20506;-80
2022/02/07 05:23:50;;;;;;;4.53;0.93;;;2.50;99.90;;;;;;5054449;28;20434;-80
2022/02/07 05:26:16;;;;;;;6.77;0.40;;;2.70;99.90;;;;;;5036685;28;20412;-80
2022/02/07 05:28:45;;;;;;;7.10;1.27;;;2.80;99.90;;;;;;5036339;28;20772;-80
2022/02/07 05:31:10;;;;;;;3.20;0.33;;;2.90;99.90;;;;;;5036445;28;20851;-80
2022/02/07 05:33:38;;;;;;;4.07;0.53;;;2.80;99.90;;;;;;5054467;28;20410;-80
2022/02/07 05:36:04;;;;;;;7.33;1.27;;;2.70;99.90;;;;;;5054405;28;20259;-80
2022/02/07 05:38:32;;;;;;;4.03;0.57;;;2.80;99.90;;;;;;5054453;28;20472;-81
2022/02/07 05:41:01;;;;;;;5.20;0.93;;;2.70;99.90;;;;;;5053347;28;20181;-80
2022/02/07 05:43:26;;;;;;;3.50;0.93;;;2.80;99.90;;;;;;5053876;28;20497;-80
2022/02/07 05:45:52;;;;;;;5.10;0.20;;;2.60;99.90;;;;;;5054167;28;20462;-80
2022/02/07 05:48:18;;;;;;;5.13;0.80;;;2.60;99.90;;;;;;5054145;28;20237;-80
2022/02/07 05:50:43;;;;;;;7.27;0.70;;;2.60;99.90;;;;;;5054031;28;20213;-80
2022/02/07 05:53:09;;;;;;;3.87;0.87;;;2.60;99.90;;;;;;5053999;28;20670;-80
2022/02/07 05:55:34;;;;;;;6.07;1.10;;;2.70;99.90;;;;;;5053991;28;20174;-80
2022/02/07 05:58:00;;;;;;;3.50;0.70;;;2.70;99.90;;;;;;5036006;28;20244;-81
2022/02/07 06:00:32;;;;;;;5.00;1.40;;;2.70;99.90;;;;;;5035402;28;20181;-81
2022/02/07 06:02:58;;;;;;;8.20;1.03;;;2.60;99.90;;;;;;5053951;28;20404;-81
2022/02/07 06:05:24;;;;;;;7.00;1.40;;;2.70;99.90;;;;;;5053567;28;20510;-81
2022/02/07 06:07:49;;;;;;;11.33;1.47;;;2.60;99.90;;;;;;5053711;28;20520;-81
2022/02/07 06:10:15;;;;;;;13.73;1.13;;;2.70;99.90;;;;;;5053540;28;20205;-81
2022/02/07 06:12:43;;;;;;;9.60;1.80;;;2.60;99.90;;;;;;5053422;28;20172;-80
2022/02/07 06:15:09;;;;;;;2.67;0.67;;;2.70;99.90;;;;;;5035355;28;20181;-81
2022/02/07 06:17:35;;;;;;;4.40;1.13;;;2.70;99.90;;;;;;5053497;28;20781;-81
2022/02/07 06:20:00;;;;;;;3.97;0.90;;;2.80;99.90;;;;;;5053408;28;20177;-81
2022/02/07 06:22:26;;;;;;;9.13;1.27;;;2.80;99.90;;;;;;5035329;28;20168;-81
2022/02/07 06:24:52;;;;;;;3.70;1.47;;;2.90;99.90;;;;;;5053124;28;20596;-81
2022/02/07 06:27:18;;;;;;;4.63;0.70;;;3.00;99.90;;;;;;5052384;28;20177;-81
2022/02/07 06:29:44;;;;;;;6.33;1.20;;;3.10;99.90;;;;;;5051402;28;20422;-81
2022/02/07 06:32:09;;;;;;;7.83;1.70;;;3.10;99.90;;;;;;5051643;28;20438;-81
2022/02/07 06:34:35;;;;;;;11.77;1.50;;;3.10;99.90;;;;;;5053234;28;20615;-81
2022/02/07 06:37:00;;;;;;;6.90;1.57;;;3.10;99.90;;;;;;5035416;28;20185;-81
2022/02/07 06:39:27;;;;;;;7.03;1.23;;;3.20;99.90;;;;;;5053225;28;20502;-81
2022/02/07 06:41:56;;;;;;;7.00;1.40;;;2.10;99.90;;;;;;5053167;28;20184;-81
2022/02/07 06:44:26;;;;;;;5.37;1.10;;;3.40;99.90;;;;;;5052757;28;20406;-81
2022/02/07 06:46:52;;;;;;;11.83;1.90;;;3.50;99.90;;;;;;5052815;28;20976;-81
2022/02/07 06:49:18;;;;;;;4.97;0.93;;;3.50;99.90;;;;;;5052694;28;20418;-82
2022/02/07 06:51:43;;;;;;;8.50;1.43;;;3.40;99.90;;;;;;5034988;28;20499;-82
2022/02/07 06:54:09;;;;;;;9.33;1.43;;;3.40;99.90;;;;;;5052568;28;20229;-81
2022/02/07 06:56:34;;;;;;;8.33;1.03;;;3.70;99.90;;;;;;5052833;28;20188;-81
2022/02/07 06:59:20;;;;;;;6.67;1.23;;;3.80;99.90;;;;;;5034764;28;20208;-82
2022/02/07 07:01:46;;;;;;;6.10;0.97;;;3.80;99.90;;;;;;5052513;28;20626;-82
2022/02/07 07:04:12;;;;;;;10.50;1.03;;;3.80;99.90;;;;;;5052849;28;20419;-82
2022/02/07 07:06:38;;;;;;;7.87;1.40;;;3.70;99.90;;;;;;5052814;28;20184;-81
2022/02/07 07:09:05;;;;;;;6.97;1.63;;;3.80;99.90;;;;;;5052752;28;20204;-80
2022/02/07 07:11:32;;;;;;;8.83;1.57;;;5.00;99.90;;;;;;5034777;28;20475;-81
2022/02/07 07:14:04;;;;;;;9.60;1.33;;;4.00;99.90;;;;;;5052342;28;20445;-80
2022/02/07 07:19:03;;;;;;;8.87;1.20;;;3.90;99.90;;;;;;5052771;28;20611;-81
2022/02/07 07:21:29;;;;;;;12.83;1.73;;;3.90;99.90;;;;;;5052662;28;20415;-81
2022/02/07 07:23:55;;;;;;;8.67;1.67;;;3.90;99.90;;;;;;5052522;28;20412;-82
2022/02/07 07:26:24;;;;;;;11.33;2.13;;;3.90;99.90;;;;;;5052593;28;20420;-82
2022/02/07 07:28:49;;;;;;;10.60;1.60;;;4.00;99.90;;;;;;5052101;28;20448;-82
2022/02/07 07:31:16;;;;;;;10.03;2.40;;;4.10;99.90;;;;;;5052401;28;20531;-82
2022/02/07 07:33:44;;;;;;;12.83;2.50;;;4.10;99.90;;;;;;5034662;28;20428;-81
2022/02/07 07:36:10;;;;;;;10.03;2.07;;;4.20;99.90;;;;;;5052528;28;20813;-81
2022/02/07 07:38:38;;;;;;;4.37;1.80;;;4.20;99.90;;;;;;5052409;28;20404;-82
2022/02/07 07:41:04;;;;;;;11.20;1.90;;;4.30;99.90;;;;;;5052412;28;20169;-81
2022/02/07 07:43:31;;;;;;;6.63;2.10;;;4.30;99.90;;;;;;5052103;28;20769;-81
2022/02/07 07:46:06;;;;;;;6.50;0.73;;;4.30;99.90;;;;;;5052440;28;20560;-81
2022/02/07 07:48:35;;;;;;;15.73;1.67;;;4.40;99.90;;;;;;5034635;28;20510;-80
2022/02/07 07:51:06;;;;;;;9.80;1.27;;;4.90;99.90;;;;;;5052241;28;20471;-82
2022/02/07 08:01:45;;;;;;;16.90;2.00;;;6.00;99.90;;;;;;5052540;28;20531;-81
2022/02/07 08:04:13;;;;;;;9.33;1.40;;;6.30;99.90;;;;;;5053620;28;20437;-82
2022/02/07 08:06:45;;;;;;;13.63;2.97;;;6.50;99.90;;;;;;5056111;28;20567;-81
2022/02/07 08:11:41;;;;;;;23.80;2.03;;;6.50;99.90;;;;;;5056023;28;20468;-79
2022/02/07 08:14:07;;;;;;;15.33;2.90;;;6.90;99.90;;;;;;5055628;28;20190;-80
2022/02/07 08:16:32;;;;;;;8.73;1.73;;;7.30;99.90;;;;;;5055856;28;20413;-80
2022/02/07 08:19:07;;;;;;;8.80;1.20;;;7.50;99.90;;;;;;5055988;28;20243;-80
2022/02/07 08:21:34;;;;;;;10.30;2.77;;;8.50;99.90;;;;;;5055831;28;20190;-80
2022/02/07 08:24:00;;;;;;;15.43;2.20;;;8.50;99.90;;;;;;5055832;28;20489;-80
2022/02/07 08:26:26;;;;;;;13.43;2.30;;;7.50;99.90;;;;;;5055634;28;20831;-81
2022/02/07 08:28:51;;;;;;;14.03;2.10;;;7.00;99.90;;;;;;5055272;28;20418;-81
2022/02/07 08:31:17;;;;;;;7.47;0.87;;;7.10;99.90;;;;;;5055400;28;20283;-82
2022/02/07 08:33:48;;;;;;;8.73;1.30;;;7.60;99.90;;;;;;5055622;28;20170;-80
2022/02/07 08:36:17;;;;;;;9.60;2.30;;;8.20;99.90;;;;;;5055229;28;20418;-81
2022/02/07 08:38:43;;;;;;;9.23;2.10;;;8.20;99.90;;;;;;5055459;28;20500;-80
2022/02/07 08:41:09;;;;;;;9.00;2.23;;;8.70;99.90;;;;;;5055261;28;20630;-81
2022/02/07 08:43:34;;;;;;;9.00;1.60;;;8.90;99.90;;;;;;5054957;28;20523;-81
2022/02/07 08:46:00;;;;;;;7.73;2.30;;;8.60;99.90;;;;;;5037460;28;20600;-80
2022/02/07 08:48:26;;;;;;;7.23;1.83;;;9.40;99.90;;;;;;5055248;28;20210;-82
2022/02/07 08:50:54;;;;;;;13.47;2.50;;;9.70;99.90;;;;;;5055187;28;20464;-82
2022/02/07 08:53:26;;;;;;;12.53;1.97;;;9.70;1.00;;;;;;5054866;28;20272;-81
2022/02/07 08:55:52;;;;;;;13.67;1.70;;;9.90;1.00;;;;;;5055113;28;20554;-81
2022/02/07 08:58:24;;;;;;;17.50;3.17;;;10.10;1.00;;;;;;5054725;28;20422;-81
2022/02/07 09:01:03;;;;;;;19.67;2.50;;;10.30;99.90;;;;;;5054998;28;20493;-82
2022/02/07 09:11:17;;;;;;;16.27;2.60;;;11.30;1.00;;;;;;5054790;28;20481;-82
2022/02/07 09:13:47;;;;;;;7.43;2.53;;;11.50;99.90;;;;;;5036714;28;20643;-82
2022/02/07 09:16:29;;;;;;;11.80;1.90;;;12.10;99.90;;;;;;5054440;28;20975;-82
2022/02/07 09:18:58;;;;;;;7.43;2.10;;;11.90;99.90;;;;;;5054979;28;20408;-82
2022/02/07 09:21:23;;;;;;;8.50;2.20;;;11.90;99.90;;;;;;5036897;28;20425;-83
2022/02/07 09:23:51;;;;;;;9.37;2.00;;;11.50;99.90;;;;;;5054692;28;20423;-82
2022/02/07 09:26:17;;;;;;;16.97;3.27;;;10.70;99.90;;;;;;5054882;28;20511;-82
2022/02/07 09:28:43;;;;;;;13.47;2.97;;;9.80;99.90;;;;;;5036336;28;20438;-82
2022/02/07 09:31:10;;;;;;;6.27;2.23;;;9.00;99.90;;;;;;5054522;28;20212;-83
2022/02/07 09:33:35;;;;;;;14.10;2.80;;;8.20;1.00;;;;;;5054527;28;20766;-82
2022/02/07 09:36:02;;;;;;;19.03;3.93;;;7.40;99.90;;;;;;5054532;28;20416;-83
2022/02/07 09:38:28;;;;;;;13.50;2.77;;;6.90;99.90;;;;;;5036191;28;20184;-84
2022/02/07 09:40:54;;;;;;;13.10;4.30;;;9.50;99.90;;;;;;5052121;28;20932;-83
2022/02/07 09:43:26;;;;;;;15.13;3.47;;;10.70;99.90;;;;;;5052309;28;20422;-83
2022/02/07 09:45:52;;;;;;;12.03;2.37;;;11.30;99.90;;;;;;5053551;28;20768;-84
2022/02/07 09:48:19;;;;;;;16.23;3.93;;;11.50;99.70;;;;;;5053276;28;20434;-83
2022/02/07 09:50:45;;;;;;;8.60;2.50;;;12.50;97.40;;;;;;5072085;28;20453;-86
2022/02/07 09:53:11;;;;;;;7.90;2.00;;;11.70;97.30;;;;;;5071458;28;20796;-83
2022/02/07 09:55:37;;;;;;;14.90;1.90;;;9.30;99.90;;;;;;5073177;28;20402;-84
2022/02/07 09:58:06;;;;;;;15.40;2.60;;;8.50;99.90;;;;;;5072675;28;20417;-86
2022/02/07 10:00:36;;;;;;;12.37;3.17;;;8.10;99.90;;;;;;5071241;28;20650;-85
2022/02/07 10:03:19;;;;;;;13.13;2.73;;;7.50;99.90;;;;;;5073152;28;20414;-83
2022/02/07 10:06:00;;;;;;;9.00;2.40;;;7.10;99.90;;;;;;5072964;28;20417;-84
2022/02/07 10:14:03;;;;;;;11.00;1.60;;;5.90;99.90;;;;;;5072547;28;20404;-83
2022/02/07 10:16:42;;;;;;;7.53;2.10;;;5.80;99.90;;;;;;5072805;28;20420;-83
2022/02/07 10:19:23;;;;;;;13.67;2.00;;;5.90;99.90;;;;;;5072561;28;20407;-84
2022/02/07 10:44:50;;;;;;;8.77;1.10;;;7.50;99.90;;;;;;5075946;28;20415;-89
2022/02/07 10:50:03;;;;;;;17.57;3.33;;;8.70;99.90;;;;;;5077370;28;20457;-90
2022/02/07 10:52:44;;;;;;;12.00;1.87;;;10.50;99.90;;;;;;5058331;28;20518;-90
2022/02/07 10:55:20;;;;;;;10.87;1.97;;;11.30;99.90;;;;;;5074148;28;20415;-90
2022/02/07 10:57:46;;;;;;;11.13;2.47;;;11.60;98.90;;;;;;5056963;28;20415;-84
2022/02/07 11:00:17;;;;;;;14.20;2.63;;;12.20;97.90;;;;;;5054686;28;20455;-87
2022/02/07 11:02:54;;;;;;;13.73;2.30;;;12.50;97.90;;;;;;5056916;28;20770;-87
2022/02/07 11:05:22;;;;;;;14.93;2.63;;;12.30;96.60;;;;;;5074519;28;20499;-87
2022/02/07 11:07:54;;;;;;;6.67;1.67;;;12.20;97.40;;;;;;5073430;28;20408;-89
2022/02/07 11:15:39;;;;;;;13.47;2.30;;;12.20;96.00;;;;;;5072120;28;20463;-84
2022/02/07 11:18:22;;;;;;;9.30;1.90;;;11.70;95.80;;;;;;5071800;28;20425;-88
2022/02/07 11:21:08;;;;;;;7.37;1.90;;;12.60;95.40;;;;;;5072307;28;20421;-88
2022/02/07 11:23:49;;;;;;;9.57;4.07;;;11.20;97.00;;;;;;5034741;28;20941;-87
2022/02/07 11:26:48;;;;;;;10.80;1.90;;;;;;;;;;5034110;28;20476;-87
2022/02/07 11:29:38;;;;;;;9.63;2.07;;;9.90;99.00;;;;;;5051601;28;20495;-81
2022/02/07 11:32:05;;;;;;;8.63;1.50;;;9.10;99.00;;;;;;5061756;28;20873;-82
2022/02/07 11:34:49;;;;;;;11.97;2.83;;;8.80;99.90;;;;;;5053562;28;20478;-87
2022/02/07 11:37:24;;;;;;;11.83;2.00;;;8.40;99.90;;;;;;5072280;28;20432;-86
2022/02/07 11:39:50;;;;;;;8.70;2.10;;;8.20;99.90;;;;;;5073543;28;20437;-82
2022/02/07 11:42:15;;;;;;;6.70;1.20;;;8.50;99.90;;;;;;5076226;28;20420;-82
2022/02/07 11:44:45;;;;;;;15.30;1.80;;;9.70;99.90;;;;;;5075656;28;20473;-83
2022/02/07 11:47:23;;;;;;;7.77;1.10;;;9.10;99.60;;;;;;5076169;28;20914;-81
2022/02/07 11:49:51;;;;;;;12.07;1.67;;;8.40;99.90;;;;;;5076194;28;20914;-89
2022/02/07 11:52:41;;;;;;;3.50;0.83;;;8.10;99.90;;;;;;5075740;28;20473;-81
2022/02/07 11:55:11;;;;;;;10.73;1.67;;;7.90;99.90;;;;;;5076469;28;20429;-85
2022/02/07 11:57:41;;;;;;;8.90;1.80;;;7.90;99.90;;;;;;5076012;28;20406;-83
2022/02/07 12:00:10;;;;;;;10.57;1.73;;;10.00;99.50;;;;;;5076159;28;20498;-82
2022/02/07 12:02:37;;;;;;;5.23;1.47;;;10.00;95.70;;;;;;5076515;28;20433;-81
2022/02/07 12:05:08;;;;;;;7.50;1.80;;;8.90;99.90;;;;;;5076140;28;20496;-82
2022/02/07 12:07:39;;;;;;;8.83;2.20;;;8.70;99.90;;;;;;5076236;28;20568;-81
2022/02/07 12:12:44;;;;;;;11.23;1.70;;;9.10;99.50;;;;;;5075656;28;20494;-82
2022/02/07 12:15:13;;;;;;;8.50;1.63;;;10.30;97.90;;;;;;5075951;28;20794;-81
2022/02/07 12:17:43;;;;;;;9.80;1.60;;;10.30;97.60;;;;;;5075901;28;20413;-82
2022/02/07 12:20:11;;;;;;;7.27;0.60;;;11.10;95.60;;;;;;5075740;28;20444;-82
2022/02/07 12:22:58;;;;;;;9.23;1.80;;;11.30;95.20;;;;;;5075696;28;20414;-90
2022/02/07 12:25:29;;;;;;;3.60;1.70;;;11.90;92.60;;;;;;5067547;28;20418;-85
2022/02/07 12:27:58;;;;;;;2.30;0.53;;;12.30;91.00;;;;;;5075041;28;20411;-87
2022/02/07 12:30:32;;;;;;;9.13;1.53;;;12.60;91.50;;;;;;5075298;28;20447;-87
2022/02/07 12:33:05;;;;;;;9.80;1.50;;;12.90;99.90;;;;;;5057247;28;21009;-87
2022/02/07 12:35:31;;;;;;;9.00;1.60;;;12.50;99.90;;;;;;5075459;28;20823;-87
2022/02/07 12:37:56;;;;;;;7.20;0.90;;;12.00;99.90;;;;;;5075732;28;20412;-85
2022/02/07 12:40:23;;;;;;;9.00;1.27;;;12.10;99.90;;;;;;5058229;28;20498;-86
2022/02/07 12:42:50;;;;;;;5.60;0.90;;;10.80;99.90;;;;;;5077678;28;20532;-87
2022/02/07 12:45:17;;;;;;;4.07;1.10;;;12.00;99.90;;;;;;5060956;28;20424;-88
2022/02/07 12:47:48;;;;;;;6.77;1.60;;;13.20;99.90;;;;;;5077514;28;20848;-90
2022/02/07 12:50:15;;;;;;;8.60;1.47;;;13.30;99.90;;;;;;5077971;28;20497;-87
2022/02/07 12:52:41;;;;;;;8.37;1.93;;;13.50;99.90;;;;;;5076966;28;20462;-87
2022/02/07 12:55:11;;;;;;;8.80;1.30;;;13.30;99.90;;;;;;5057063;28;20923;-86
2022/02/07 12:57:44;;;;;;;5.33;1.70;;;13.00;99.90;;;;;;5075202;28;20258;-90
2022/02/07 13:00:13;;;;;;;10.17;1.53;;;11.90;99.90;;;;;;5076095;28;20542;-89
2022/02/07 13:02:44;;;;;;;8.73;2.00;;;12.30;99.90;;;;;;5058115;28;20439;-89
2022/02/07 13:05:14;;;;;;;7.90;1.63;;;11.00;99.90;;;;;;5074767;28;20412;-85
2022/02/07 13:07:45;;;;;;;7.43;2.17;;;10.30;99.90;;;;;;5075215;28;20933;-87
2022/02/07 13:10:20;;;;;;;9.07;1.77;;;10.20;99.90;;;;;;5057279;28;20475;-88
2022/02/07 13:13:16;;;;;;;10.57;2.90;;;10.70;99.90;;;;;;5076420;28;20411;-87
2022/02/07 13:15:39;;;;;;;10.03;1.77;;;10.10;99.90;;;;;;5076065;28;20419;-86
2022/02/07 13:18:10;;;;;;;6.67;1.33;;;9.50;99.90;;;;;;5057927;28;20451;-86
2022/02/07 13:20:37;;;;;;;4.60;0.57;;;8.10;99.90;;;;;;5057269;28;20626;-86
2022/02/07 13:23:10;;;;;;;2.73;0.30;;;6.80;99.90;;;;;;5074890;28;20411;-84
2022/02/07 13:25:48;;;;;;;1.70;0.37;;;6.50;99.90;;;;;;5074791;28;20465;-87
2022/02/07 13:28:15;;;;;;;7.70;1.30;;;6.20;99.90;;;;;;5074048;28;20520;-87
2022/02/07 13:30:47;;;;;;;4.10;0.60;;;6.40;99.90;;;;;;5057206;28;20931;-92
2022/02/07 13:33:13;;;;;;;8.10;1.90;;;6.40;99.90;;;;;;5075693;28;20476;-85
2022/02/07 13:35:45;;;;;;;4.70;0.67;;;6.70;99.90;;;;;;5075564;28;20845;-86
2022/02/07 13:38:13;;;;;;;4.70;1.00;;;7.00;99.90;;;;;;5056699;28;20607;-82
2022/02/07 13:40:42;;;;;;;13.70;2.20;;;7.00;99.90;;;;;;5056304;28;20940;-83
2022/02/07 13:43:29;;;;;;;5.60;1.00;;;7.20;99.90;;;;;;5073909;28;20911;-82
2022/02/07 13:45:56;;;;;;;5.73;1.47;;;7.30;99.90;;;;;;5074160;28;20438;-83
2022/02/07 13:48:24;;;;;;;8.67;1.30;;;7.30;99.90;;;;;;5074035;28;20771;-82
2022/02/07 13:50:55;;;;;;;11.00;1.60;;;7.10;99.90;;;;;;5073913;28;20605;-83
2022/02/07 13:53:23;;;;;;;4.90;1.80;;;7.10;99.90;;;;;;5073910;28;20466;-82
2022/02/07 13:55:57;;;;;;;4.43;1.07;;;7.10;99.90;;;;;;5074357;28;20939;-83
2022/02/07 13:58:40;;;;;;;11.40;0.93;;;7.00;99.90;;;;;;5073753;28;20417;-82
2022/02/07 14:01:10;;;;;;;10.20;1.43;;;7.10;99.90;;;;;;5073811;28;20414;-83
2022/02/07 14:03:45;;;;;;;7.33;1.00;;;7.10;99.90;;;;;;5073439;28;20513;-82
2022/02/07 14:06:11;;;;;;;11.43;2.47;;;7.10;99.90;;;;;;5073717;28;20909;-83
2022/02/07 14:08:55;;;;;;;6.63;1.37;;;6.90;99.90;;;;;;5073677;28;20417;-82
2022/02/07 14:11:26;;;;;;;10.23;1.33;;;7.00;99.90;;;;;;5073732;28;20471;-82
2022/02/07 14:13:54;;;;;;;9.60;0.97;;;7.00;99.90;;;;;;5073339;28;20904;-82
2022/02/07 14:16:22;;;;;;;7.03;0.97;;;7.00;99.90;;;;;;5073669;28;20407;-83
2022/02/07 14:18:48;;;;;;;8.50;1.30;;;6.90;99.90;;;;;;5073652;28;20417;-82
2022/02/07 14:21:15;;;;;;;6.00;1.40;;;7.00;99.90;;;;;;5055438;28;20438;-82
2022/02/07 14:23:43;;;;;;;13.00;2.37;;;6.90;99.90;;;;;;5073429;28;20498;-83
2022/02/07 14:26:14;;;;;;;11.20;1.30;;;7.00;99.90;;;;;;5073499;28;20405;-82
2022/02/07 14:28:40;;;;;;;10.73;1.70;;;7.10;99.90;;;;;;5073063;28;20439;-83
2022/02/07 14:31:08;;;;;;;10.87;2.03;;;7.10;99.90;;;;;;5073255;28;20482;-83
2022/02/07 14:33:34;;;;;;;14.33;1.60;;;7.20;99.90;;;;;;5073302;28;20420;-83
2022/02/07 14:35:59;;;;;;;13.17;1.90;;;7.20;99.90;;;;;;5073292;28;20503;-83
2022/02/07 14:38:25;;;;;;;4.87;1.63;;;7.40;99.90;;;;;;5055414;28;20529;-83
2022/02/07 14:40:50;;;;;;;12.67;1.70;;;7.40;99.90;;;;;;5055226;28;20179;-83
2022/02/07 14:43:22;;;;;;;13.17;1.97;;;7.60;99.90;;;;;;5054837;28;20177;-83
2022/02/07 14:45:56;;;;;;;8.87;1.23;;;7.30;99.90;;;;;;5073114;28;20174;-82
2022/02/07 14:48:25;;;;;;;8.30;0.83;;;7.20;99.90;;;;;;5073153;28;20501;-83
2022/02/07 14:50:50;;;;;;;6.30;1.93;;;7.30;99.90;;;;;;5072500;28;20823;-83
2022/02/07 14:53:16;;;;;;;5.27;1.30;;;7.30;99.90;;;;;;5072476;28;20459;-83
2022/02/07 14:55:42;;;;;;;9.50;1.40;;;7.30;99.90;;;;;;5054697;28;20170;-83
2022/02/07 14:58:08;;;;;;;12.80;2.60;;;7.10;99.90;;;;;;5053811;28;20180;-82
2022/02/07 15:00:34;;;;;;;11.67;1.50;;;7.00;99.90;;;;;;5054838;28;20676;-83
2022/02/07 15:03:01;;;;;;;7.90;1.57;;;6.80;99.90;;;;;;5064355;28;20461;-82
2022/02/07 15:05:31;;;;;;;7.00;2.33;;;6.90;99.90;;;;;;5051969;28;20409;-83
2022/02/07 15:07:57;;;;;;;7.37;1.17;;;6.60;99.90;;;;;;5052346;28;20414;-83
2022/02/07 15:10:24;;;;;;;4.60;1.23;;;6.40;99.90;;;;;;5056027;28;20469;-82
2022/02/07 15:12:52;;;;;;;5.67;0.93;;;6.30;99.90;;;;;;5072000;28;21011;-82
2022/02/07 15:15:18;;;;;;;5.00;1.40;;;6.10;99.90;;;;;;5072424;28;20421;-82
2022/02/07 15:17:43;;;;;;;6.57;1.23;;;6.00;99.90;;;;;;5072141;28;20550;-83
2022/02/07 15:20:13;;;;;;;6.67;1.03;;;5.90;99.90;;;;;;5072322;28;20400;-83
2022/02/07 15:22:47;;;;;;;4.47;0.90;;;5.90;99.90;;;;;;5052217;28;20264;-83
2022/02/07 15:25:19;;;;;;;6.90;1.23;;;5.80;99.90;;;;;;5067789;28;20419;-83